createdAt,value
2023-05-13T00:00:30.692Z,21.40
2023-05-13T00:02:57.735Z,21.40
2023-05-13T00:05:24.791Z,21.40
2023-05-13T00:07:51.623Z,21.50
2023-05-13T00:10:20.523Z,21.50
2023-05-13T00:12:47.830Z,21.50
2023-05-13T00:15:14.656Z,21.50
2023-05-13T00:17:41.535Z,21.50
2023-05-13T00:20:08.853Z,21.50
2023-05-13T00:22:35.685Z,21.50
2023-05-13T00:25:02.903Z,21.50
2023-05-13T00:27:32.754Z,21.50
2023-05-13T00:30:00.162Z,21.50
2023-05-13T00:32:27.591Z,21.60
2023-05-13T00:34:54.456Z,21.60
2023-05-13T00:37:21.276Z,21.60
2023-05-13T00:39:48.497Z,21.60
2023-05-13T00:42:15.363Z,21.60
2023-05-13T00:44:42.568Z,21.60
2023-05-13T00:47:12.033Z,21.60
2023-05-13T00:49:38.998Z,21.60
2023-05-13T00:52:06.646Z,21.60
2023-05-13T00:54:33.910Z,21.60
2023-05-13T00:57:00.836Z,21.60
2023-05-13T00:59:29.586Z,21.60
2023-05-13T01:02:25.519Z,21.60
2023-05-13T01:05:04.250Z,21.60
2023-05-13T01:07:50.999Z,21.70
2023-05-13T01:10:36.156Z,21.70
2023-05-13T01:13:08.855Z,21.60
2023-05-13T01:16:10.719Z,21.60
2023-05-13T01:18:42.633Z,21.70
2023-05-13T01:21:11.913Z,21.70
2023-05-13T01:23:38.794Z,21.60
2023-05-13T01:26:05.847Z,21.70
2023-05-13T01:28:33.392Z,21.70
2023-05-13T01:31:00.492Z,21.60
2023-05-13T01:33:27.958Z,21.70
2023-05-13T01:35:55.347Z,21.70
2023-05-13T01:38:24.375Z,21.70
2023-05-13T01:40:51.455Z,21.70
2023-05-13T01:43:19.072Z,21.70
2023-05-13T01:45:46.024Z,21.70
2023-05-13T01:48:12.854Z,21.70
2023-05-13T01:50:39.990Z,21.70
2023-05-13T01:53:06.872Z,21.70
2023-05-13T01:55:34.113Z,21.70
2023-05-13T01:58:01.164Z,21.70
2023-05-13T02:00:28.672Z,21.70
2023-05-13T02:02:55.717Z,21.60
2023-05-13T02:05:23.311Z,21.70
2023-05-13T02:07:50.481Z,21.70
2023-05-13T02:10:17.401Z,21.60
2023-05-13T02:12:45.155Z,21.60
2023-05-13T02:15:12.127Z,21.70
2023-05-13T02:17:39.368Z,21.70
2023-05-13T02:20:07.230Z,21.60
2023-05-13T02:22:34.630Z,21.70
2023-05-13T02:25:04.446Z,21.70
2023-05-13T02:27:32.175Z,21.70
2023-05-13T02:29:59.032Z,21.60
2023-05-13T02:32:26.120Z,21.60
2023-05-13T02:34:53.438Z,21.60
2023-05-13T02:37:20.254Z,21.60
2023-05-13T02:39:47.133Z,21.60
2023-05-13T02:42:14.060Z,21.60
2023-05-13T02:44:41.380Z,21.60
2023-05-13T02:47:09.597Z,21.60
2023-05-13T02:49:36.441Z,21.60
2023-05-13T02:52:03.432Z,21.50
2023-05-13T02:54:30.390Z,21.50
2023-05-13T02:56:57.206Z,21.50
2023-05-13T02:59:24.092Z,21.50
2023-05-13T03:01:50.962Z,21.40
2023-05-13T03:04:18.035Z,21.40
2023-05-13T03:06:44.846Z,21.40
2023-05-13T03:09:11.639Z,21.40
2023-05-13T03:11:38.530Z,21.40
2023-05-13T03:14:06.177Z,21.40
2023-05-13T03:16:33.065Z,21.40
2023-05-13T03:19:01.298Z,21.40
2023-05-13T03:21:28.219Z,21.40
2023-05-13T03:23:55.261Z,21.40
2023-05-13T03:26:22.363Z,21.40
2023-05-13T03:28:49.333Z,21.40
2023-05-13T03:31:16.316Z,21.40
2023-05-13T03:33:43.759Z,21.40
2023-05-13T03:36:10.577Z,21.40
2023-05-13T03:38:37.464Z,21.40
2023-05-13T03:41:04.417Z,21.30
2023-05-13T03:43:31.296Z,21.30
2023-05-13T03:45:58.194Z,21.30
2023-05-13T03:48:25.115Z,21.20
2023-05-13T03:50:53.127Z,21.20
2023-05-13T03:53:19.956Z,21.20
2023-05-13T03:55:46.785Z,21.20
2023-05-13T03:58:15.593Z,21.20
2023-05-13T04:00:43.418Z,21.20
2023-05-13T04:03:10.622Z,21.20
2023-05-13T04:05:37.638Z,21.20
2023-05-13T04:08:04.690Z,21.10
2023-05-13T04:10:31.524Z,21.10
2023-05-13T04:12:58.338Z,21.10
2023-05-13T04:15:25.373Z,21.20
2023-05-13T04:17:52.648Z,21.20
2023-05-13T04:20:20.295Z,21.20
2023-05-13T04:22:48.290Z,21.30
2023-05-13T04:25:15.300Z,21.40
2023-05-13T04:27:42.406Z,21.50
2023-05-13T04:30:09.960Z,21.60
2023-05-13T04:32:37.021Z,21.70
2023-05-13T04:35:04.120Z,21.80
2023-05-13T04:37:31.306Z,21.80
2023-05-13T04:39:58.121Z,21.90
2023-05-13T04:42:24.954Z,21.90
2023-05-13T04:44:51.847Z,22.00
2023-05-13T04:47:18.878Z,22.00
2023-05-13T04:49:45.980Z,22.00
2023-05-13T04:52:13.245Z,22.00
2023-05-13T04:54:40.297Z,22.00
2023-05-13T04:57:07.435Z,22.00
2023-05-13T04:59:35.105Z,21.90
2023-05-13T05:02:02.104Z,22.00
2023-05-13T05:04:29.379Z,22.00
2023-05-13T05:06:56.229Z,22.00
2023-05-13T05:09:23.079Z,22.10
2023-05-13T05:11:50.631Z,22.10
2023-05-13T05:14:17.753Z,22.10
2023-05-13T05:16:44.631Z,22.10
2023-05-13T05:19:11.489Z,22.10
2023-05-13T05:21:38.521Z,22.20
2023-05-13T05:24:06.134Z,22.20
2023-05-13T05:26:33.078Z,22.20
2023-05-13T05:29:00.005Z,22.20
2023-05-13T05:31:27.611Z,22.20
2023-05-13T05:33:56.322Z,22.20
2023-05-13T05:36:23.271Z,22.10
2023-05-13T05:38:50.109Z,22.10
2023-05-13T05:41:16.999Z,22.10
2023-05-13T05:43:43.846Z,22.00
2023-05-13T05:46:11.653Z,22.00
2023-05-13T05:48:38.542Z,22.00
2023-05-13T05:51:05.817Z,22.00
2023-05-13T05:53:35.684Z,22.00
2023-05-13T05:56:02.569Z,22.10
2023-05-13T05:58:29.896Z,22.10
2023-05-13T06:00:58.305Z,22.10
2023-05-13T06:03:25.443Z,22.20
2023-05-13T06:05:52.912Z,22.20
2023-05-13T06:08:20.025Z,22.30
2023-05-13T06:10:46.951Z,22.30
2023-05-13T06:13:13.841Z,22.30
2023-05-13T06:15:40.752Z,22.30
2023-05-13T06:18:07.756Z,22.30
2023-05-13T06:20:34.767Z,22.30
2023-05-13T06:23:01.608Z,22.30
2023-05-13T06:25:28.607Z,22.30
2023-05-13T06:27:57.044Z,22.20
2023-05-13T06:30:24.017Z,22.20
2023-05-13T06:33:01.059Z,22.10
2023-05-13T06:35:29.603Z,22.10
2023-05-13T06:37:56.459Z,22.00
2023-05-13T06:40:23.623Z,22.00
2023-05-13T06:42:50.650Z,22.00
2023-05-13T06:45:18.469Z,22.10
2023-05-13T06:47:45.379Z,22.10
2023-05-13T06:50:12.257Z,22.10
2023-05-13T06:52:41.875Z,22.10
2023-05-13T06:55:10.436Z,22.00
2023-05-13T06:57:42.963Z,22.10
2023-05-13T07:00:11.190Z,22.10
2023-05-13T07:02:38.131Z,22.00
2023-05-13T07:05:05.360Z,22.00
2023-05-13T07:07:32.257Z,22.10
2023-05-13T07:09:59.130Z,22.00
2023-05-13T07:12:26.040Z,22.00
2023-05-13T07:14:52.964Z,22.00
2023-05-13T07:17:19.892Z,21.90
2023-05-13T07:19:47.505Z,21.90
2023-05-13T07:22:14.400Z,21.90
2023-05-13T07:24:41.831Z,21.90
2023-05-13T07:27:08.714Z,21.90
2023-05-13T07:29:35.951Z,22.00
2023-05-13T07:32:06.725Z,22.00
2023-05-13T07:34:33.851Z,22.00
2023-05-13T07:37:00.770Z,21.90
2023-05-13T07:39:28.242Z,21.90
2023-05-13T07:41:55.154Z,21.90
2023-05-13T07:44:22.442Z,21.90
2023-05-13T07:46:51.548Z,21.90
2023-05-13T07:49:18.439Z,21.80
2023-05-13T07:51:45.399Z,21.80
2023-05-13T07:54:12.256Z,21.70
2023-05-13T07:56:39.209Z,21.70
2023-05-13T07:59:06.062Z,21.60
2023-05-13T08:01:32.924Z,21.60
2023-05-13T08:04:00.001Z,21.60
2023-05-13T08:06:27.130Z,21.60
2023-05-13T08:08:53.988Z,21.60
2023-05-13T08:11:21.799Z,21.60
2023-05-13T08:13:48.691Z,21.70
2023-05-13T08:16:15.680Z,21.70
2023-05-13T08:18:42.684Z,21.70
2023-05-13T08:21:09.579Z,21.80
2023-05-13T08:23:44.932Z,21.80
2023-05-13T08:26:12.741Z,21.80
2023-05-13T08:28:39.677Z,21.90
2023-05-13T08:31:06.608Z,21.80
2023-05-13T08:33:33.564Z,21.90
2023-05-13T08:36:01.487Z,21.80
2023-05-13T08:38:28.540Z,21.80
2023-05-13T08:40:55.549Z,21.80
2023-05-13T08:43:24.387Z,21.80
2023-05-13T08:45:53.474Z,21.80
2023-05-13T08:48:21.664Z,21.80
2023-05-13T08:50:49.455Z,21.80
2023-05-13T08:53:18.702Z,21.90
2023-05-13T08:55:45.738Z,21.90
2023-05-13T08:58:12.808Z,21.90
2023-05-13T09:00:40.848Z,21.90
2023-05-13T09:03:08.246Z,22.00
2023-05-13T09:05:38.521Z,22.00
2023-05-13T09:08:09.770Z,22.10
2023-05-13T09:10:37.373Z,22.10
2023-05-13T09:13:04.809Z,22.10
2023-05-13T09:15:32.129Z,22.20
2023-05-13T09:18:01.454Z,22.30
2023-05-13T09:20:28.683Z,22.30
2023-05-13T09:23:01.599Z,22.40
2023-05-13T09:25:29.881Z,22.40
2023-05-13T09:27:59.163Z,22.50
2023-05-13T09:30:29.287Z,22.50
2023-05-13T09:33:10.871Z,22.60
2023-05-13T09:35:39.786Z,22.60
2023-05-13T09:38:16.827Z,22.70
2023-05-13T09:40:54.847Z,22.70
2023-05-13T09:43:23.328Z,22.80
2023-05-13T09:45:54.883Z,22.80
2023-05-13T09:48:23.480Z,22.80
2023-05-13T09:50:52.061Z,22.90
2023-05-13T09:53:21.209Z,22.90
2023-05-13T09:55:49.602Z,22.90
2023-05-13T09:58:16.636Z,22.90
2023-05-13T10:00:44.473Z,22.90
2023-05-13T10:03:12.083Z,23.00
2023-05-13T10:05:39.876Z,23.00
2023-05-13T10:08:10.140Z,23.00
2023-05-13T10:10:37.857Z,23.10
2023-05-13T10:13:13.933Z,23.10
2023-05-13T10:15:53.510Z,23.10
2023-05-13T10:18:22.142Z,23.10
2023-05-13T10:20:54.937Z,23.10
2023-05-13T10:23:24.064Z,23.10
2023-05-13T10:25:53.088Z,23.10
2023-05-13T10:28:20.383Z,23.00
2023-05-13T10:30:52.078Z,23.00
2023-05-13T10:33:20.152Z,22.90
2023-05-13T10:36:13.985Z,22.90
2023-05-13T10:38:46.649Z,22.80
2023-05-13T10:41:58.850Z,22.80
2023-05-13T10:44:26.077Z,22.80
2023-05-13T10:46:52.921Z,22.80
2023-05-13T10:49:24.600Z,22.80
2023-05-13T10:51:51.653Z,22.80
2023-05-13T10:54:20.530Z,22.80
2023-05-13T10:56:57.603Z,22.80
2023-05-13T10:59:24.994Z,22.70
2023-05-13T11:01:51.901Z,22.70
2023-05-13T11:04:21.419Z,22.70
2023-05-13T11:06:53.330Z,22.70
2023-05-13T11:09:23.032Z,22.70
2023-05-13T11:11:54.338Z,22.60
2023-05-13T11:14:25.833Z,22.60
2023-05-13T11:16:53.126Z,22.50
2023-05-13T11:19:51.732Z,22.40
2023-05-13T11:22:22.474Z,22.40
2023-05-13T11:25:09.328Z,22.30
2023-05-13T11:27:42.973Z,22.30
2023-05-13T11:30:30.203Z,22.30
2023-05-13T11:32:58.648Z,22.20
2023-05-13T11:35:26.929Z,22.20
2023-05-13T11:37:56.994Z,22.10
2023-05-13T11:40:30.703Z,22.10
2023-05-13T11:42:58.796Z,22.10
2023-05-13T11:45:27.665Z,22.10
2023-05-13T11:47:56.348Z,22.00
2023-05-13T11:50:28.001Z,22.00
2023-05-13T11:52:57.201Z,22.00
2023-05-13T11:55:36.699Z,22.10
2023-05-13T11:58:04.193Z,22.10
2023-05-13T12:00:35.139Z,22.20
2023-05-13T12:03:10.418Z,22.20
2023-05-13T12:05:38.202Z,22.30
2023-05-13T12:08:09.495Z,22.40
2023-05-13T12:10:43.004Z,22.40
2023-05-13T12:13:10.030Z,22.60
2023-05-13T12:15:37.175Z,22.70
2023-05-13T12:18:04.346Z,22.70
2023-05-13T12:20:31.304Z,22.80
2023-05-13T12:23:00.272Z,22.90
2023-05-13T12:25:33.135Z,22.90
2023-05-13T12:28:00.345Z,23.00
2023-05-13T12:30:34.410Z,23.00
2023-05-13T12:33:01.738Z,22.90
2023-05-13T12:35:28.844Z,22.90
2023-05-13T12:38:03.859Z,23.00
2023-05-13T12:40:31.581Z,22.90
2023-05-13T12:43:02.244Z,23.00
2023-05-13T12:45:33.508Z,22.90
2023-05-13T12:48:01.757Z,22.90
2023-05-13T12:50:29.039Z,22.80
2023-05-13T12:52:57.784Z,22.80
2023-05-13T12:55:24.927Z,22.80
2023-05-13T12:57:57.316Z,22.80
2023-05-13T13:00:24.908Z,22.70
2023-05-13T13:02:53.621Z,22.70
2023-05-13T13:05:21.936Z,22.70
2023-05-13T13:07:49.360Z,22.60
2023-05-13T13:10:16.582Z,22.60
2023-05-13T13:12:43.731Z,22.60
2023-05-13T13:15:11.504Z,22.50
2023-05-13T13:17:38.522Z,22.50
2023-05-13T13:20:07.417Z,22.50
2023-05-13T13:22:37.039Z,22.40
2023-05-13T13:25:08.112Z,22.40
2023-05-13T13:27:35.324Z,22.30
2023-05-13T13:30:02.473Z,22.30
2023-05-13T13:32:30.312Z,22.30
2023-05-13T13:34:58.323Z,22.30
2023-05-13T13:37:25.772Z,22.20
2023-05-13T13:39:52.760Z,22.30
2023-05-13T13:42:19.640Z,22.30
2023-05-13T13:44:46.570Z,22.40
2023-05-13T13:47:13.468Z,22.40
2023-05-13T13:49:40.308Z,22.50
2023-05-13T13:52:08.154Z,22.50
2023-05-13T13:54:35.054Z,22.60
2023-05-13T13:57:02.009Z,22.70
2023-05-13T13:59:29.060Z,22.70
2023-05-13T14:01:56.881Z,22.80
2023-05-13T14:04:27.256Z,22.80
2023-05-13T14:06:57.795Z,22.80
2023-05-13T14:09:24.949Z,22.90
2023-05-13T14:11:52.100Z,22.90
2023-05-13T14:14:21.411Z,22.90
2023-05-13T14:16:48.560Z,22.90
2023-05-13T14:19:15.499Z,22.90
2023-05-13T14:21:42.430Z,22.90
2023-05-13T14:24:11.896Z,22.90
2023-05-13T14:26:39.298Z,22.90
2023-05-13T14:29:06.189Z,22.80
2023-05-13T14:31:33.244Z,22.70
2023-05-13T14:34:00.218Z,22.70
2023-05-13T14:36:31.401Z,22.60
2023-05-13T14:38:58.545Z,22.60
2023-05-13T14:41:25.838Z,22.50
2023-05-13T14:43:52.755Z,22.40
2023-05-13T14:46:19.677Z,22.40
2023-05-13T14:48:46.645Z,22.30
2023-05-13T14:51:13.593Z,22.30
2023-05-13T14:53:40.772Z,22.20
2023-05-13T14:56:08.165Z,22.20
2023-05-13T14:58:35.383Z,22.20
2023-05-13T15:01:02.674Z,22.20
2023-05-13T15:03:29.955Z,22.20
2023-05-13T15:05:58.083Z,22.20
2023-05-13T15:08:25.473Z,22.30
2023-05-13T15:10:52.441Z,22.30
2023-05-13T15:13:19.548Z,22.30
2023-05-13T15:15:46.523Z,22.30
2023-05-13T15:18:14.282Z,22.40
2023-05-13T15:20:41.327Z,22.40
2023-05-13T15:23:08.218Z,22.50
2023-05-13T15:25:35.955Z,22.50
2023-05-13T15:28:02.948Z,22.60
2023-05-13T15:30:30.099Z,22.60
2023-05-13T15:32:57.607Z,22.70
2023-05-13T15:35:24.437Z,22.70
2023-05-13T15:37:51.300Z,22.80
2023-05-13T15:40:18.166Z,22.80
2023-05-13T15:42:45.166Z,22.80
2023-05-13T15:45:12.349Z,22.90
2023-05-13T15:47:39.324Z,22.90
2023-05-13T15:50:06.872Z,22.90
2023-05-13T15:52:33.794Z,22.90
2023-05-13T15:55:00.723Z,22.80
2023-05-13T15:57:27.522Z,22.80
2023-05-13T15:59:54.345Z,22.80
2023-05-13T16:02:21.248Z,22.70
2023-05-13T16:04:48.107Z,22.70
2023-05-13T16:07:15.007Z,22.60
2023-05-13T16:09:41.970Z,22.50
2023-05-13T16:12:09.729Z,22.50
2023-05-13T16:14:36.569Z,22.40
2023-05-13T16:17:03.389Z,22.40
2023-05-13T16:19:30.268Z,22.30
2023-05-13T16:21:57.116Z,22.30
2023-05-13T16:24:23.926Z,22.30
2023-05-13T16:26:50.752Z,22.30
2023-05-13T16:29:17.748Z,22.20
2023-05-13T16:31:44.679Z,22.20
2023-05-13T16:34:11.630Z,22.20
2023-05-13T16:36:38.478Z,22.20
2023-05-13T16:39:05.540Z,22.10
2023-05-13T16:41:33.293Z,22.10
2023-05-13T16:44:00.195Z,22.20
2023-05-13T16:46:27.155Z,22.30
2023-05-13T16:48:54.015Z,22.30
2023-05-13T16:51:22.014Z,22.40
2023-05-13T16:53:48.867Z,22.50
2023-05-13T16:56:16.585Z,22.60
2023-05-13T16:58:43.400Z,22.60
2023-05-13T17:01:11.121Z,22.60
2023-05-13T17:03:37.997Z,22.60
2023-05-13T17:06:07.213Z,22.60
2023-05-13T17:08:34.058Z,22.70
2023-05-13T17:11:00.939Z,22.70
2023-05-13T17:13:27.757Z,22.70
2023-05-13T17:15:54.554Z,22.70
2023-05-13T17:18:21.358Z,22.70
2023-05-13T17:20:48.163Z,22.70
2023-05-13T17:23:17.268Z,22.60
2023-05-13T17:25:44.175Z,22.60
2023-05-13T17:28:11.636Z,22.50
2023-05-13T17:30:38.428Z,22.50
2023-05-13T17:33:05.261Z,22.40
2023-05-13T17:35:32.133Z,22.50
2023-05-13T17:37:58.962Z,22.40
2023-05-13T17:40:26.083Z,22.40
2023-05-13T17:42:53.060Z,22.40
2023-05-13T17:45:20.271Z,22.40
2023-05-13T17:47:47.452Z,22.50
2023-05-13T17:50:14.479Z,22.60
2023-05-13T17:52:41.598Z,22.60
2023-05-13T17:55:08.848Z,22.70
2023-05-13T17:57:35.871Z,22.80
2023-05-13T18:00:06.945Z,22.90
2023-05-13T18:02:34.231Z,22.90
2023-05-13T18:05:01.169Z,23.00
2023-05-13T18:07:28.187Z,23.10
2023-05-13T18:09:55.176Z,23.10
2023-05-13T18:12:22.061Z,23.20
2023-05-13T18:14:48.944Z,23.20
2023-05-13T18:17:16.105Z,23.20
2023-05-13T18:19:45.494Z,23.20
2023-05-13T18:22:12.549Z,23.10
2023-05-13T18:24:39.647Z,23.10
2023-05-13T18:27:09.577Z,23.10
2023-05-13T18:29:36.732Z,23.10
2023-05-13T18:32:04.840Z,23.10
2023-05-13T18:34:32.756Z,23.10
2023-05-13T18:36:59.904Z,23.10
2023-05-13T18:39:26.697Z,23.00
2023-05-13T18:41:53.508Z,23.00
2023-05-13T18:44:20.461Z,23.00
2023-05-13T18:46:47.440Z,22.90
2023-05-13T18:49:14.257Z,22.90
2023-05-13T18:51:41.185Z,22.90
2023-05-13T18:54:07.998Z,22.90
2023-05-13T18:56:34.826Z,22.90
2023-05-13T18:59:03.676Z,22.80
2023-05-13T19:01:30.576Z,22.80
2023-05-13T19:03:57.672Z,22.80
2023-05-13T19:06:24.743Z,22.70
2023-05-13T19:08:51.601Z,22.70
2023-05-13T19:11:18.416Z,22.60
2023-05-13T19:13:47.592Z,22.60
2023-05-13T19:16:15.604Z,22.60
2023-05-13T19:18:42.587Z,22.60
2023-05-13T19:21:09.533Z,22.60
2023-05-13T19:23:37.892Z,22.50
2023-05-13T19:26:04.870Z,22.50
2023-05-13T19:28:32.297Z,22.40
2023-05-13T19:30:59.229Z,22.50
2023-05-13T19:33:26.144Z,22.40
2023-05-13T19:35:53.033Z,22.40
2023-05-13T19:38:21.456Z,22.30
2023-05-13T19:40:48.370Z,22.30
2023-05-13T19:43:15.229Z,22.30
2023-05-13T19:45:42.066Z,22.30
2023-05-13T19:48:09.008Z,22.30
2023-05-13T19:50:35.850Z,22.30
2023-05-13T19:53:02.758Z,22.30
2023-05-13T19:55:29.983Z,22.30
2023-05-13T19:57:56.838Z,22.30
2023-05-13T20:00:24.068Z,22.30
2023-05-13T20:02:51.515Z,22.30
2023-05-13T20:05:18.503Z,22.30
2023-05-13T20:07:45.652Z,22.30
2023-05-13T20:10:12.693Z,22.30
2023-05-13T20:12:39.607Z,22.30
2023-05-13T20:15:06.863Z,22.30
2023-05-13T20:17:33.918Z,22.30
2023-05-13T20:20:01.269Z,22.30
2023-05-13T20:22:28.220Z,22.30
2023-05-13T20:24:55.152Z,22.20
2023-05-13T20:27:22.555Z,22.20
2023-05-13T20:29:49.615Z,22.20
2023-05-13T20:32:24.915Z,22.10
2023-05-13T20:34:52.762Z,22.10
2023-05-13T20:37:21.229Z,22.10
2023-05-13T20:39:50.656Z,22.10
2023-05-13T20:42:17.785Z,22.10
2023-05-13T20:44:46.323Z,22.10
2023-05-13T20:47:13.898Z,22.00
2023-05-13T20:49:43.788Z,22.00
2023-05-13T20:52:11.535Z,22.00
2023-05-13T20:54:38.691Z,22.00
2023-05-13T20:57:05.772Z,22.00
2023-05-13T20:59:32.832Z,22.00
2023-05-13T21:01:59.775Z,21.90
2023-05-13T21:04:26.814Z,21.90
2023-05-13T21:06:53.640Z,21.80
2023-05-13T21:09:20.525Z,21.80
2023-05-13T21:11:47.430Z,21.80
2023-05-13T21:14:14.754Z,21.70
2023-05-13T21:16:42.897Z,21.70
2023-05-13T21:19:19.348Z,21.60
2023-05-13T21:21:46.860Z,21.60
2023-05-13T21:24:17.034Z,21.60
2023-05-13T21:26:44.179Z,21.60
2023-05-13T21:29:11.117Z,21.60
2023-05-13T21:31:38.023Z,21.60
2023-05-13T21:34:04.932Z,21.60
2023-05-13T21:36:33.099Z,21.60
2023-05-13T21:38:59.937Z,21.60
2023-05-13T21:41:26.761Z,21.60
2023-05-13T21:43:53.604Z,21.60
2023-05-13T21:46:20.472Z,21.60
2023-05-13T21:48:47.436Z,21.60
2023-05-13T21:51:14.439Z,21.60
2023-05-13T21:53:41.253Z,21.60
2023-05-13T21:56:08.305Z,21.60
2023-05-13T21:58:35.251Z,21.60
2023-05-13T22:01:02.562Z,21.60
2023-05-13T22:03:29.941Z,21.60
2023-05-13T22:05:56.882Z,21.60
2023-05-13T22:08:23.798Z,21.60
2023-05-13T22:10:51.056Z,21.60
2023-05-13T22:13:17.942Z,21.70
2023-05-13T22:15:44.776Z,21.70
2023-05-13T22:18:11.729Z,21.70
2023-05-13T22:20:38.705Z,21.70
2023-05-13T22:23:07.216Z,21.70
2023-05-13T22:25:34.053Z,21.70
2023-05-13T22:28:00.976Z,21.70
2023-05-13T22:30:27.941Z,21.70
2023-05-13T22:32:55.809Z,21.70
2023-05-13T22:35:22.838Z,21.70
2023-05-13T22:37:50.596Z,21.70
2023-05-13T22:40:17.504Z,21.60
2023-05-13T22:42:44.310Z,21.60
2023-05-13T22:45:11.601Z,21.60
2023-05-13T22:47:38.518Z,21.60
2023-05-13T22:50:05.920Z,21.60
2023-05-13T22:52:32.852Z,21.60
2023-05-13T22:54:59.690Z,21.60
2023-05-13T22:57:27.074Z,21.60
2023-05-13T22:59:53.965Z,21.60
2023-05-13T23:02:20.863Z,21.60
2023-05-13T23:04:47.694Z,21.60
2023-05-13T23:07:14.503Z,21.60
2023-05-13T23:09:41.812Z,21.60
2023-05-13T23:12:08.652Z,21.60
2023-05-13T23:14:35.643Z,21.60
2023-05-13T23:17:02.509Z,21.60
2023-05-13T23:19:29.674Z,21.70
2023-05-13T23:21:56.541Z,21.60
2023-05-13T23:24:23.355Z,21.70
2023-05-13T23:26:50.261Z,21.70
2023-05-13T23:29:17.364Z,21.70
2023-05-13T23:31:44.272Z,21.70
2023-05-13T23:34:11.191Z,21.70
2023-05-13T23:36:38.106Z,21.70
2023-05-13T23:39:04.939Z,21.70
2023-05-13T23:41:31.879Z,21.70
2023-05-13T23:43:58.725Z,21.70
2023-05-13T23:46:26.097Z,21.70
2023-05-13T23:48:53.143Z,21.70
2023-05-13T23:51:19.955Z,21.70
2023-05-13T23:53:46.811Z,21.70
2023-05-13T23:56:13.646Z,21.70
2023-05-13T23:58:40.449Z,21.70
